Time;durP1;ratioP1;P1;durP2;ratioP2;P2;SDS_P1;SDS_P2;PMS_P1;PMS_P2;Temp;Humidity;BMP_temperature;BMP_pressure;BME280_temperature;BME280_humidity;BME280_pressure;Samples;Min_cycle;Max_cycle;Signal;HPM_P1;HPM_P2
2022/07/01 00:02:02;;;;;;;6.45;1.80;;;;;;;18.72;63.99;101130.63;5053980;28;20052;-66
2022/07/01 00:04:30;;;;;;;4.80;1.05;;;;;;;18.82;64.48;101124.50;5073362;28;20056;-65
2022/07/01 00:07:23;;;;;;;4.25;1.35;;;;;;;18.89;63.97;101125.50;5032704;28;20064;-65
2022/07/01 00:09:50;;;;;;;2.70;1.08;;;;;;;18.59;63.81;101127.09;5044526;28;20057;-64
2022/07/01 00:12:18;;;;;;;5.85;1.10;;;;;;;18.64;64.40;101132.41;5068010;28;20053;-65
2022/07/01 00:14:45;;;;;;;7.53;1.33;;;;;;;18.67;64.38;101134.47;5066874;28;20403;-64
2022/07/01 00:17:13;;;;;;;3.17;1.02;;;;;;;18.68;64.69;101133.31;5073670;28;20056;-65
2022/07/01 00:19:40;;;;;;;3.20;1.10;;;;;;;18.65;64.19;101138.81;5055932;28;20075;-66
2022/07/01 00:22:07;;;;;;;6.40;2.08;;;;;;;18.74;63.77;101142.25;5054617;28;20567;-65
2022/07/01 00:24:35;;;;;;;7.10;1.50;;;;;;;18.72;63.85;101136.19;5066967;28;20052;-65
2022/07/01 00:27:03;;;;;;;3.47;1.02;;;;;;;18.53;64.31;101145.22;5050685;28;20791;-66
2022/07/01 00:29:32;;;;;;;5.32;0.93;;;;;;;18.51;63.97;101138.41;5054640;28;20045;-65
2022/07/01 00:32:00;;;;;;;3.95;1.30;;;;;;;18.65;63.81;101142.41;5071291;28;20055;-65
2022/07/01 00:34:27;;;;;;;5.18;1.00;;;;;;;18.42;64.65;101146.94;5072332;28;20563;-64
2022/07/01 00:36:55;;;;;;;5.55;1.27;;;;;;;18.48;64.23;101144.72;5074307;28;20051;-65
2022/07/01 00:39:22;;;;;;;8.00;1.60;;;;;;;18.47;63.99;101138.31;5060997;28;20048;-64
2022/07/01 00:41:50;;;;;;;3.70;1.17;;;;;;;18.60;63.64;101141.84;5074009;28;20051;-65
2022/07/01 00:44:22;;;;;;;2.17;0.70;;;;;;;18.63;64.07;101152.28;5048440;28;20123;-65
2022/07/01 00:46:50;;;;;;;3.70;1.05;;;;;;;18.28;63.38;101165.19;5072908;28;20048;-65
2022/07/01 00:49:19;;;;;;;2.80;1.10;;;;;;;18.25;64.40;101158.38;5055927;28;20520;-65
2022/07/01 00:51:47;;;;;;;17.67;1.20;;;;;;;18.37;64.52;101149.13;5073679;28;20053;-65
2022/07/01 00:54:15;;;;;;;3.30;0.90;;;;;;;18.53;63.89;101150.03;5073802;28;20060;-65
2022/07/01 00:56:42;;;;;;;3.78;1.10;;;;;;;18.43;63.92;101154.13;5072000;28;20143;-65
2022/07/01 00:59:09;;;;;;;4.13;0.93;;;;;;;18.52;64.15;101148.38;5073679;28;20064;-65
2022/07/01 01:01:36;;;;;;;4.45;0.82;;;;;;;18.29;64.46;101164.84;5074182;28;20044;-64
2022/07/01 01:04:04;;;;;;;3.92;1.00;;;;;;;18.47;64.70;101157.84;5073209;28;20052;-65
2022/07/01 01:06:31;;;;;;;5.68;1.13;;;;;;;18.45;64.26;101159.34;5088291;28;20053;-64
2022/07/01 01:08:59;;;;;;;5.15;0.90;;;;;;;18.55;63.87;101165.22;5064179;28;20056;-64
2022/07/01 01:11:26;;;;;;;4.65;0.90;;;;;;;18.59;63.93;101156.94;5083445;28;20048;-64
2022/07/01 01:13:53;;;;;;;3.60;1.00;;;;;;;18.38;64.45;101173.88;5073936;28;20060;-67
2022/07/01 01:16:22;;;;;;;3.55;0.95;;;;;;;18.23;64.75;101173.81;5055330;28;20055;-66
2022/07/01 01:18:49;;;;;;;3.92;0.95;;;;;;;18.39;64.95;101175.53;5073560;28;20052;-66
2022/07/01 01:21:18;;;;;;;5.47;0.80;;;;;;;18.49;64.31;101179.78;5074034;28;20049;-65
2022/07/01 01:23:45;;;;;;;3.30;0.85;;;;;;;18.49;64.12;101183.41;5072579;28;20484;-64
2022/07/01 01:26:17;;;;;;;3.47;1.00;;;;;;;18.23;65.13;101180.22;5058352;28;20057;-65
2022/07/01 01:28:45;;;;;;;2.92;0.90;;;;;;;18.22;65.06;101194.53;5076971;28;20063;-64
2022/07/01 01:31:12;;;;;;;5.05;0.98;;;;;;;18.34;64.70;101192.47;5071434;28;20174;-64
2022/07/01 01:33:39;;;;;;;4.50;1.23;;;;;;;18.34;64.69;101198.06;5069679;28;20697;-65
2022/07/01 01:36:07;;;;;;;6.63;0.93;;;;;;;18.22;65.20;101194.53;5076324;28;20045;-66
2022/07/01 01:38:35;;;;;;;4.70;1.00;;;;;;;18.17;65.23;101192.78;5074828;28;20048;-65
2022/07/01 01:41:03;;;;;;;6.07;1.20;;;;;;;18.18;65.43;101186.03;5059045;28;20079;-64
2022/07/01 01:43:34;;;;;;;6.15;1.02;;;;;;;18.32;65.46;101188.44;5073905;28;20053;-65
2022/07/01 01:46:03;;;;;;;9.25;1.30;;;;;;;18.15;65.23;101188.72;5067983;28;20044;-64
2022/07/01 01:48:31;;;;;;;5.05;1.00;;;;;;;18.23;65.71;101193.34;5057856;28;20056;-65
2022/07/01 01:50:58;;;;;;;9.82;1.15;;;;;;;17.99;65.86;101195.00;5076332;28;20068;-65
2022/07/01 01:53:25;;;;;;;5.18;1.02;;;;;;;18.04;65.83;101190.38;5076678;28;20044;-65
2022/07/01 01:55:53;;;;;;;4.78;1.23;;;;;;;18.10;65.34;101195.34;5076603;28;20056;-65
2022/07/01 01:58:20;;;;;;;3.88;0.80;;;;;;;18.22;64.61;101192.53;5076856;28;20060;-65
2022/07/01 02:00:51;;;;;;;1.45;0.95;;;;;;;18.34;64.62;101200.06;5083854;28;20056;-65
2022/07/01 02:03:18;;;;;;;3.72;1.00;;;;;;;18.20;64.54;101194.06;5077691;28;20059;-64
2022/07/01 02:05:46;;;;;;;5.13;1.08;;;;;;;18.24;65.19;101200.53;5105582;28;20060;-65
2022/07/01 02:08:13;;;;;;;3.47;1.10;;;;;;;18.29;64.60;101198.31;5058135;28;20495;-64
2022/07/01 02:10:41;;;;;;;2.92;1.00;;;;;;;18.16;64.98;101198.69;5058651;28;20045;-65
2022/07/01 02:13:08;;;;;;;5.38;1.35;;;;;;;18.15;64.50;101214.63;5091036;28;20053;-65
2022/07/01 02:15:36;;;;;;;2.83;0.82;;;;;;;18.20;64.88;101210.78;5085584;28;20059;-65
2022/07/01 02:18:03;;;;;;;3.05;0.93;;;;;;;18.18;65.05;101204.75;5055800;28;20061;-65
2022/07/01 02:20:30;;;;;;;4.07;1.10;;;;;;;18.27;64.56;101208.22;5087396;28;20063;-65
2022/07/01 02:22:58;;;;;;;6.22;1.17;;;;;;;18.21;64.52;101201.25;5077217;28;20048;-65
2022/07/01 02:25:25;;;;;;;4.78;1.08;;;;;;;18.20;64.78;101206.00;5061874;28;20055;-65
2022/07/01 02:27:52;;;;;;;5.28;1.05;;;;;;;18.11;64.91;101212.88;5075841;28;20056;-64
2022/07/01 02:30:19;;;;;;;4.43;0.95;;;;;;;17.98;65.52;101204.56;5033443;28;20036;-65
2022/07/01 02:32:47;;;;;;;6.68;0.90;;;;;;;18.07;65.48;101206.38;5068398;28;20060;-65
2022/07/01 02:35:14;;;;;;;7.43;1.02;;;;;;;17.98;65.40;101207.34;5072324;28;20052;-64
2022/07/01 02:37:41;;;;;;;4.50;1.48;;;;;;;18.25;64.94;101219.72;5075882;28;20527;-65
2022/07/01 02:40:11;;;;;;;3.35;1.10;;;;;;;17.90;64.98;101218.63;5058187;28;20052;-65
2022/07/01 02:42:39;;;;;;;3.85;0.88;;;;;;;18.08;64.96;101219.19;5065118;28;20055;-65
2022/07/01 02:45:08;;;;;;;3.67;1.20;;;;;;;18.13;64.65;101222.53;5057226;28;20451;-65
2022/07/01 02:47:39;;;;;;;3.60;1.08;;;;;;;17.92;63.13;101222.66;5075557;28;20051;-65
2022/07/01 02:50:11;;;;;;;5.35;1.23;;;;;;;17.69;65.39;101223.50;5075311;28;20052;-65
2022/07/01 02:52:39;;;;;;;3.38;0.85;;;;;;;17.82;65.75;101228.72;5069372;28;20079;-66
2022/07/01 02:55:11;;;;;;;4.38;1.00;;;;;;;17.82;65.03;101228.72;5039647;28;20045;-64
2022/07/01 02:57:40;;;;;;;3.25;1.10;;;;;;;17.98;64.98;101229.63;5076078;28;20506;-65
2022/07/01 03:00:10;;;;;;;5.45;1.15;;;;;;;17.86;64.14;101224.09;5071115;28;20056;-65
2022/07/01 03:02:37;;;;;;;4.57;1.13;;;;;;;17.70;64.44;101233.47;5049606;28;20065;-65
2022/07/01 03:05:06;;;;;;;5.38;1.40;;;;;;;17.28;65.71;101235.63;5057314;28;20488;-65
2022/07/01 03:07:36;;;;;;;7.57;1.23;;;;;;;17.27;65.79;101235.97;5054101;28;20060;-65
2022/07/01 03:10:04;;;;;;;;;;;;;;;17.05;67.52;101241.97;5040424;28;20547;-65
2022/07/01 03:12:34;;;;;;;5.10;1.35;;;;;;;16.77;66.59;101228.66;5045752;28;19927;-64
2022/07/01 03:15:06;;;;;;;5.75;1.10;;;;;;;17.14;67.17;101229.56;5072159;28;20041;-64
2022/07/01 03:17:34;;;;;;;8.10;1.65;;;;;;;17.45;66.00;101243.78;5062620;28;20506;-64
2022/07/01 03:20:11;;;;;;;5.07;1.50;;;;;;;16.44;67.66;101240.91;5067577;28;20057;-64
2022/07/01 03:22:38;;;;;;;4.60;1.45;;;;;;;16.42;68.22;101241.22;5044412;28;20076;-64
2022/07/01 03:25:06;;;;;;;8.50;1.58;;;;;;;16.60;68.07;101241.91;5074527;28;20495;-65
2022/07/01 03:27:34;;;;;;;4.93;1.60;;;;;;;16.72;68.11;101253.09;5071539;28;20055;-65
2022/07/01 03:30:04;;;;;;;5.35;1.60;;;;;;;16.22;67.44;101250.38;5067038;28;20048;-65
2022/07/01 03:32:32;;;;;;;4.90;1.92;;;;;;;16.57;68.39;101259.28;5072733;28;20055;-65
2022/07/01 03:34:59;;;;;;;6.13;2.00;;;;;;;15.94;69.43;101254.00;5089594;28;20052;-65
2022/07/01 03:37:27;;;;;;;5.18;1.58;;;;;;;16.55;69.14;101256.03;5053013;28;20049;-65
2022/07/01 03:39:54;;;;;;;6.95;1.75;;;;;;;17.12;67.58;101259.72;5066167;28;20055;-65
2022/07/01 03:42:21;;;;;;;5.78;2.15;;;;;;;17.19;67.03;101262.75;5075006;28;20040;-65
2022/07/01 03:44:49;;;;;;;7.70;2.20;;;;;;;16.19;67.88;101269.69;5057727;28;20052;-66
2022/07/01 03:47:16;;;;;;;6.72;1.90;;;;;;;16.50;69.55;101270.16;5053055;28;20056;-67
2022/07/01 03:49:43;;;;;;;8.38;1.77;;;;;;;16.95;67.77;101265.47;5064497;28;20052;-64
2022/07/01 03:52:11;;;;;;;5.68;1.90;;;;;;;17.32;66.74;101258.84;5074357;28;20053;-65
2022/07/01 03:54:38;;;;;;;6.70;2.00;;;;;;;17.35;66.08;101271.25;5056425;28;20064;-64
2022/07/01 03:57:08;;;;;;;6.43;1.70;;;;;;;17.13;66.89;101269.72;5074204;28;20045;-64
2022/07/01 03:59:38;;;;;;;6.57;1.83;;;;;;;16.75;67.61;101274.69;5043055;28;20562;-64
2022/07/01 04:02:06;;;;;;;5.13;1.88;;;;;;;16.57;66.31;101276.78;5074912;28;20046;-64
2022/07/01 04:04:34;;;;;;;6.18;2.10;;;;;;;16.28;69.87;101285.19;5075369;28;20056;-64
2022/07/01 04:07:04;;;;;;;6.63;2.03;;;;;;;16.45;67.98;101289.78;5061985;28;20056;-64
2022/07/01 04:09:32;;;;;;;8.48;2.88;;;;;;;16.40;68.83;101290.00;5069792;28;20487;-65
2022/07/01 04:11:59;;;;;;;6.10;2.22;;;;;;;16.77;68.07;101287.09;5056028;28;20045;-64
2022/07/01 04:14:27;;;;;;;7.82;2.25;;;;;;;17.27;66.89;101288.88;5068858;28;20037;-65
2022/07/01 04:16:54;;;;;;;8.30;2.55;;;;;;;16.10;69.68;101288.38;5073782;28;20044;-65
2022/07/01 04:19:21;;;;;;;8.02;2.70;;;;;;;16.50;68.81;101287.66;5053194;28;20061;-64
2022/07/01 04:24:34;;;;;;;4.60;2.20;;;;;;;17.07;66.65;101289.75;5064846;28;20048;-65
2022/07/01 04:27:03;;;;;;;10.85;2.72;;;;;;;17.09;66.77;101299.38;5071207;28;20391;-64
2022/07/01 04:29:30;;;;;;;6.10;2.13;;;;;;;17.27;66.20;101289.72;5073313;28;20052;-65
2022/07/01 04:31:58;;;;;;;6.03;2.30;;;;;;;16.64;65.19;101299.31;5067809;28;20056;-64
2022/07/01 04:34:25;;;;;;;4.90;1.80;;;;;;;16.06;69.99;101304.09;5065600;28;20052;-64
2022/07/01 04:36:52;;;;;;;8.88;2.20;;;;;;;16.70;68.41;101306.28;5055608;28;20056;-64
2022/07/01 04:39:20;;;;;;;6.15;2.03;;;;;;;17.14;66.80;101304.72;5074024;28;20055;-64
2022/07/01 04:41:59;;;;;;;7.25;2.33;;;;;;;17.12;66.04;101297.91;5036101;28;20056;-65
2022/07/01 04:44:28;;;;;;;9.55;2.47;;;;;;;16.84;66.39;101308.81;5071445;28;20052;-64
2022/07/01 04:46:56;;;;;;;7.33;1.97;;;;;;;16.41;68.47;101313.84;5075282;28;20078;-66
2022/07/01 04:49:24;;;;;;;5.30;1.77;;;;;;;16.82;68.15;101316.69;5055751;28;20036;-64
2022/07/01 04:51:51;;;;;;;7.70;1.75;;;;;;;16.77;67.47;101314.91;5073510;28;20526;-65
2022/07/01 04:54:19;;;;;;;5.60;2.03;;;;;;;15.35;70.90;101323.34;5038958;28;20120;-66
2022/07/01 04:56:48;;;;;;;8.70;2.00;;;;;;;15.43;72.36;101318.94;5072110;28;20400;-64
2022/07/01 04:59:16;;;;;;;9.70;2.20;;;;;;;15.95;71.76;101314.81;5039425;28;20037;-65
2022/07/01 05:01:44;;;;;;;7.07;1.75;;;;;;;16.10;70.37;101319.78;5055053;28;20484;-67
2022/07/01 05:04:15;;;;;;;5.25;1.80;;;;;;;16.51;69.34;101317.06;5052881;28;20040;-66
2022/07/01 05:06:42;;;;;;;6.68;1.90;;;;;;;16.36;69.76;101330.72;5076873;28;20056;-65
2022/07/01 05:09:11;;;;;;;6.07;1.98;;;;;;;16.79;68.01;101323.72;5044134;28;20075;-65
2022/07/01 05:11:38;;;;;;;7.75;2.00;;;;;;;17.04;66.89;101321.88;5075548;28;20049;-64
2022/07/01 05:14:07;;;;;;;5.85;1.52;;;;;;;17.24;66.18;101321.03;5048708;28;20055;-64
2022/07/01 05:16:35;;;;;;;4.75;1.30;;;;;;;17.20;65.39;101328.44;5084955;28;20048;-63
2022/07/01 05:21:55;;;;;;;6.65;1.70;;;;;;;17.41;65.14;101333.94;5077510;28;20526;-63
2022/07/01 05:24:30;;;;;;;11.40;2.60;;;;;;;17.30;67.15;101328.00;5077498;28;20059;-63
2022/07/01 05:27:00;;;;;;;11.95;2.30;;;;;;;17.36;66.37;101328.59;5059226;28;20051;-64
2022/07/01 05:29:28;;;;;;;6.00;1.40;;;;;;;17.23;68.31;101321.34;5062678;28;20056;-64
2022/07/01 05:31:56;;;;;;;12.60;1.67;;;;;;;17.48;66.60;101326.69;5059506;28;20060;-63
2022/07/01 05:34:23;;;;;;;8.57;1.50;;;;;;;17.41;67.04;101326.41;5046457;28;20079;-63
2022/07/01 05:36:50;;;;;;;12.13;2.20;;;;;;;17.45;65.82;101318.19;5045897;28;20520;-63
2022/07/01 05:39:18;;;;;;;6.30;1.50;;;;;;;17.46;65.06;101319.78;5051951;28;21502;-63
2022/07/01 05:41:45;;;;;;;8.88;2.20;;;;;;;17.46;66.62;101320.66;5072031;28;20064;-65
2022/07/01 05:44:12;;;;;;;12.93;2.28;;;;;;;17.39;66.28;101330.69;5069069;28;20049;-65
2022/07/01 05:46:40;;;;;;;7.13;1.70;;;;;;;17.66;65.63;101332.88;5070923;28;20040;-67
2022/07/01 05:49:07;;;;;;;8.10;1.80;;;;;;;17.72;64.76;101335.09;5058011;28;20045;-64
2022/07/01 05:51:41;;;;;;;6.65;1.70;;;;;;;17.70;65.05;101337.41;5074951;28;20053;-64
2022/07/01 05:54:08;;;;;;;7.05;1.63;;;;;;;17.79;64.38;101334.50;5054757;28;20079;-64
2022/07/01 05:56:36;;;;;;;6.30;1.63;;;;;;;17.94;64.13;101331.03;5071951;28;20052;-66
2022/07/01 05:59:03;;;;;;;13.85;1.83;;;;;;;17.76;64.16;101346.34;5088027;28;20515;-66
2022/07/01 06:01:30;;;;;;;10.07;2.05;;;;;;;17.73;63.51;101333.13;5076632;28;20056;-64
2022/07/01 06:03:58;;;;;;;9.65;1.88;;;;;;;17.86;63.68;101335.56;5074169;28;20057;-65
2022/07/01 06:06:25;;;;;;;11.18;2.40;;;;;;;18.02;63.58;101346.03;5075423;28;20052;-64
2022/07/01 06:08:53;;;;;;;15.30;2.28;;;;;;;17.95;63.83;101347.44;5074291;28;20518;-66
2022/07/01 06:11:20;;;;;;;14.18;2.20;;;;;;;18.02;63.76;101344.06;5057539;28;20040;-65
2022/07/01 06:13:47;;;;;;;12.93;2.15;;;;;;;18.10;63.01;101340.31;5090180;28;20053;-63
2022/07/01 06:16:15;;;;;;;6.97;1.38;;;;;;;17.95;62.07;101343.81;5073980;28;20840;-65
2022/07/01 06:18:42;;;;;;;6.40;1.40;;;;;;;18.01;62.69;101349.97;5075391;28;20052;-65
2022/07/01 06:21:09;;;;;;;9.05;1.67;;;;;;;18.16;63.50;101354.84;5065181;28;20059;-64
2022/07/01 06:23:37;;;;;;;11.13;1.95;;;;;;;18.30;62.38;101347.75;5058739;28;20040;-65
2022/07/01 06:26:05;;;;;;;7.43;1.50;;;;;;;18.15;62.68;101344.88;5058813;28;20060;-65
2022/07/01 06:28:32;;;;;;;17.83;1.90;;;;;;;18.26;61.72;101340.44;5077399;28;20492;-65
2022/07/01 06:31:01;;;;;;;12.52;1.73;;;;;;;18.28;62.32;101343.69;5089014;28;20051;-65
2022/07/01 06:33:30;;;;;;;6.22;1.08;;;;;;;18.21;62.25;101349.03;5064453;28;20529;-64
2022/07/01 06:35:57;;;;;;;13.82;1.67;;;;;;;18.28;61.68;101346.47;5056613;28;20570;-65
2022/07/01 06:38:25;;;;;;;7.60;1.58;;;;;;;17.48;61.91;101351.75;5039860;28;20064;-65
2022/07/01 06:43:39;;;;;;;14.75;1.65;;;;;;;18.32;59.86;101353.81;5086547;28;20522;-65
2022/07/01 06:46:06;;;;;;;10.15;1.20;;;;;;;18.13;59.25;101363.91;5088600;28;20055;-64
2022/07/01 06:48:33;;;;;;;8.85;1.38;;;;;;;18.50;55.32;101351.59;5058540;28;20056;-64
2022/07/01 06:51:01;;;;;;;6.72;1.30;;;;;;;18.02;56.27;101357.16;5064929;28;20063;-63
2022/07/01 06:53:28;;;;;;;7.85;1.38;;;;;;;17.99;56.29;101367.84;5055578;28;20075;-65
2022/07/01 06:55:56;;;;;;;7.38;1.42;;;;;;;18.17;55.19;101368.44;5082314;28;20064;-66
2022/07/01 06:58:24;;;;;;;8.98;1.70;;;;;;;17.69;56.02;101363.66;5057769;28;20082;-64
2022/07/01 07:00:51;;;;;;;4.97;1.38;;;;;;;16.79;58.15;101378.56;5052498;28;20052;-65
2022/07/01 07:03:19;;;;;;;8.05;1.63;;;;;;;16.16;60.29;101376.78;5072652;28;20063;-63
2022/07/01 07:05:46;;;;;;;6.30;1.25;;;;;;;15.95;62.63;101380.69;5071434;28;20052;-65
2022/07/01 07:08:13;;;;;;;6.15;1.40;;;;;;;16.12;60.64;101375.03;5062777;28;20052;-64
2022/07/01 07:10:42;;;;;;;9.20;1.75;;;;;;;16.03;61.35;101374.25;5082432;28;20048;-65
2022/07/01 07:13:09;;;;;;;12.82;1.67;;;;;;;16.39;61.55;101371.75;5082395;28;20131;-64
2022/07/01 07:15:41;;;;;;;7.53;1.70;;;;;;;16.99;61.58;101372.19;5058777;28;20044;-64
2022/07/01 07:18:08;;;;;;;8.75;1.83;;;;;;;16.66;59.55;101371.31;5083745;28;20047;-63
2022/07/01 07:20:35;;;;;;;9.25;1.60;;;;;;;16.20;60.86;101374.16;5088001;28;20048;-64
2022/07/01 07:23:03;;;;;;;9.70;2.00;;;;;;;16.37;60.88;101379.66;5068094;28;20048;-64
2022/07/01 07:25:30;;;;;;;7.13;1.13;;;;;;;16.36;61.66;101366.88;5058335;28;20049;-65
2022/07/01 07:27:58;;;;;;;7.47;1.15;;;;;;;16.74;60.52;101364.84;5071094;28;20693;-64
2022/07/01 07:30:25;;;;;;;11.73;2.13;;;;;;;17.35;58.81;101377.91;5084391;28;20060;-64
2022/07/01 07:32:53;;;;;;;8.73;1.40;;;;;;;17.53;58.89;101361.84;5066016;28;20048;-66
2022/07/01 07:35:22;;;;;;;11.63;1.52;;;;;;;18.04;59.16;101369.63;5080526;28;20507;-64
2022/07/01 07:37:50;;;;;;;6.00;1.20;;;;;;;18.42;55.75;101360.91;5067172;28;20051;-67
2022/07/01 07:40:20;;;;;;;9.25;1.45;;;;;;;18.46;53.38;101367.41;5059109;28;20060;-65
2022/07/01 07:42:48;;;;;;;6.50;1.50;;;;;;;18.46;53.89;101361.84;5074928;28;20052;-65
2022/07/01 07:45:16;;;;;;;6.00;1.70;;;;;;;18.94;51.44;101361.72;5079758;28;20074;-65
2022/07/01 07:47:49;;;;;;;5.30;1.63;;;;;;;19.62;50.59;101368.06;5076167;28;20044;-65
2022/07/01 07:50:16;;;;;;;;;;;;;;;19.26;49.68;101365.44;5065045;28;20055;-65
2022/07/01 07:52:44;;;;;;;6.22;1.13;;;;;;;19.29;49.76;101367.50;5061013;28;19927;-65
2022/07/01 07:55:11;;;;;;;6.70;1.40;;;;;;;19.75;47.48;101362.03;5076102;28;20044;-66
2022/07/01 07:57:41;;;;;;;10.43;1.50;;;;;;;20.64;44.62;101357.47;5076872;28;20431;-65
2022/07/01 08:00:11;;;;;;;3.67;1.00;;;;;;;20.49;44.81;101361.13;5061086;28;20044;-66
2022/07/01 08:02:40;;;;;;;4.28;1.00;;;;;;;20.32;44.68;101363.50;5066435;28;20051;-66
2022/07/01 08:05:09;;;;;;;4.35;1.05;;;;;;;19.89;44.65;101358.81;5056900;28;20704;-65
2022/07/01 08:07:38;;;;;;;7.57;1.00;;;;;;;20.11;44.35;101359.00;5075665;28;20053;-65
2022/07/01 08:10:07;;;;;;;5.78;0.80;;;;;;;19.75;43.20;101361.25;5080674;28;20404;-65
2022/07/01 08:12:35;;;;;;;5.53;1.13;;;;;;;19.73;45.66;101370.00;5073571;28;20051;-66
2022/07/01 08:15:03;;;;;;;7.30;1.23;;;;;;;20.21;43.68;101359.66;5061008;28;20060;-65
2022/07/01 08:17:31;;;;;;;7.85;1.30;;;;;;;19.17;45.96;101373.97;5066933;28;20070;-63
2022/07/01 08:19:58;;;;;;;7.90;1.63;;;;;;;19.84;44.87;101368.28;5086989;28;20060;-66
2022/07/01 08:22:26;;;;;;;4.60;0.98;;;;;;;19.38;44.82;101383.00;5078119;28;20613;-65
2022/07/01 08:24:53;;;;;;;7.50;1.20;;;;;;;19.02;44.96;101386.69;5074352;28;20063;-66
2022/07/01 08:27:20;;;;;;;5.60;1.10;;;;;;;18.79;46.05;101374.44;5026475;28;20442;-65
2022/07/01 08:29:48;;;;;;;10.15;0.90;;;;;;;18.48;47.72;101379.84;5053373;28;20048;-65
2022/07/01 08:32:16;;;;;;;8.55;1.67;;;;;;;18.84;47.69;101382.59;5053924;28;20057;-65
2022/07/01 08:34:44;;;;;;;10.10;1.17;;;;;;;19.06;47.75;101378.44;5055625;28;20124;-66
2022/07/01 08:37:11;;;;;;;13.07;1.20;;;;;;;19.74;46.76;101380.00;5074181;28;20052;-65
2022/07/01 08:39:41;;;;;;;4.38;1.33;;;;;;;19.69;45.15;101380.25;5073621;28;20055;-65
2022/07/01 08:42:08;;;;;;;8.90;1.25;;;;;;;19.74;44.40;101388.38;5059301;28;20057;-65
2022/07/01 08:44:35;;;;;;;3.15;0.90;;;;;;;19.20;45.18;101381.63;5074297;28;20059;-64
2022/07/01 08:47:04;;;;;;;6.47;1.13;;;;;;;19.73;44.17;101380.34;5071543;28;20403;-65
2022/07/01 08:49:31;;;;;;;7.45;1.13;;;;;;;19.42;44.99;101386.69;5054901;28;20044;-70
2022/07/01 08:51:59;;;;;;;6.30;1.65;;;;;;;19.75;44.65;101378.81;5059285;28;20486;-65
2022/07/01 08:54:26;;;;;;;9.80;1.83;;;;;;;19.75;44.53;101392.00;5061041;28;20052;-66
2022/07/01 08:56:53;;;;;;;5.03;0.90;;;;;;;18.40;46.15;101411.47;5068092;28;20060;-64
2022/07/01 08:59:23;;;;;;;4.38;0.85;;;;;;;18.15;48.15;101398.63;5058275;28;20053;-65
2022/07/01 09:01:58;;;;;;;6.20;1.10;;;;;;;18.47;50.14;101408.09;5063949;28;20052;-65
2022/07/01 09:04:27;;;;;;;15.07;1.30;;;;;;;19.18;49.56;101397.94;5068014;28;20073;-64
2022/07/01 09:07:12;;;;;;;4.85;1.42;;;;;;;19.23;47.21;101408.06;5068949;28;20055;-63
2022/07/01 09:09:42;;;;;;;4.63;1.20;;;;;;;18.17;48.78;101403.88;5082848;28;20423;-64
2022/07/01 09:12:09;;;;;;;3.55;1.10;;;;;;;18.29;49.32;101401.09;5087824;28;20052;-64
2022/07/01 09:14:39;;;;;;;7.68;1.48;;;;;;;18.54;50.09;101397.16;5058905;28;20064;-64
2022/07/01 09:17:09;;;;;;;;;;;;;;;19.02;48.59;101402.66;5076920;28;20040;-65
2022/07/01 09:19:39;;;;;;;5.75;1.35;;;;;;;18.92;47.47;101400.34;5056296;28;19924;-64
2022/07/01 09:22:13;;;;;;;28.63;4.78;;;;;;;19.05;47.84;101396.38;5058790;28;20056;-65
2022/07/01 09:24:42;;;;;;;11.55;2.22;;;;;;;19.12;48.20;101404.13;5073348;28;20063;-64
2022/07/01 09:27:13;;;;;;;;;;;;;;;19.36;47.79;101398.47;5075911;28;20056;-63
2022/07/01 09:29:43;;;;;;;5.97;1.40;;;;;;;20.02;47.10;101402.28;5068240;28;19921;-65
2022/07/01 09:32:12;;;;;;;3.65;1.20;;;;;;;20.27;44.23;101402.97;5075255;28;20045;-63
2022/07/01 09:34:41;;;;;;;3.83;0.88;;;;;;;19.65;45.13;101410.09;5069521;28;20064;-65
2022/07/01 09:37:15;;;;;;;6.88;1.15;;;;;;;19.52;47.76;101405.75;5073444;28;20053;-64
2022/07/01 09:39:47;;;;;;;5.97;1.02;;;;;;;19.25;44.83;101408.53;5078907;28;20049;-65
2022/07/01 09:42:19;;;;;;;3.65;0.90;;;;;;;19.20;47.58;101408.75;5056801;28;20563;-65
2022/07/01 09:45:07;;;;;;;8.23;1.40;;;;;;;19.41;46.27;101407.44;5083931;28;20055;-65
2022/07/01 09:47:36;;;;;;;6.70;1.27;;;;;;;19.42;45.55;101413.84;5059861;28;20052;-63
2022/07/01 09:50:05;;;;;;;6.68;0.98;;;;;;;19.71;47.23;101407.84;5082575;28;20048;-64
2022/07/01 09:52:33;;;;;;;5.32;1.10;;;;;;;19.55;45.15;101415.38;5058589;28;20444;-63
2022/07/01 09:55:07;;;;;;;7.38;1.38;;;;;;;19.02;46.23;101402.66;5086668;28;20055;-64
2022/07/01 09:57:34;;;;;;;4.00;1.10;;;;;;;19.51;46.68;101400.53;5077115;28;20480;-63
2022/07/01 10:00:04;;;;;;;6.28;1.10;;;;;;;19.67;44.08;101395.75;5062449;28;20052;-63
2022/07/01 10:02:33;;;;;;;3.35;0.80;;;;;;;19.60;45.08;101399.19;5084449;28;20048;-64
2022/07/01 10:05:07;;;;;;;10.00;1.30;;;;;;;20.11;46.27;101403.75;5080916;28;20081;-65
2022/07/01 10:08:11;;;;;;;9.55;1.42;;;;;;;20.38;44.73;101393.63;5040482;28;20044;-65
2022/07/01 10:10:48;;;;;;;8.23;1.60;;;;;;;20.84;45.28;101400.31;4969931;28;20081;-66
2022/07/01 10:13:16;;;;;;;5.43;1.80;;;;;;;21.15;43.80;101397.44;5030887;28;20056;-64
2022/07/01 10:15:46;;;;;;;2.35;0.90;;;;;;;20.64;43.67;101399.47;5046481;28;20043;-64
2022/07/01 10:18:25;;;;;;;4.60;1.27;;;;;;;20.89;42.81;101398.03;5041080;28;20052;-65
2022/07/01 10:20:53;;;;;;;12.95;1.90;;;;;;;21.01;43.15;101400.75;5058743;28;20322;-66
2022/07/01 10:23:24;;;;;;;20.25;9.68;;;;;;;21.07;41.22;101407.69;5060047;28;20045;-65
2022/07/01 10:25:53;;;;;;;33.75;15.68;;;;;;;20.62;42.42;101404.63;5062223;28;20719;-65
2022/07/01 10:28:25;;;;;;;11.05;5.93;;;;;;;20.49;42.22;101402.28;5082080;28;20052;-65
2022/07/01 10:30:56;;;;;;;10.63;4.65;;;;;;;20.59;41.91;101401.75;5063047;28;20052;-65
2022/07/01 10:33:33;;;;;;;9.40;3.22;;;;;;;21.07;42.20;101396.47;5057105;28;20040;-65
2022/07/01 10:36:11;;;;;;;6.22;2.60;;;;;;;21.44;42.51;101402.47;5064267;28;20484;-65
2022/07/01 10:39:06;;;;;;;4.97;1.70;;;;;;;21.54;41.27;101395.41;5076422;28;20064;-65
2022/07/01 10:41:36;;;;;;;5.85;1.67;;;;;;;21.75;41.73;101393.03;5073884;28;20054;-63
2022/07/01 10:44:09;;;;;;;6.10;2.30;;;;;;;21.99;41.48;101379.47;5045608;28;20499;-65
2022/07/01 10:46:58;;;;;;;6.50;1.70;;;;;;;22.04;41.50;101389.56;5057421;28;20057;-64
2022/07/01 10:49:34;;;;;;;8.88;2.50;;;;;;;22.08;42.54;101387.66;5075976;28;20052;-64
2022/07/01 10:52:09;;;;;;;9.13;4.47;;;;;;;22.05;39.96;101392.03;5047263;28;20057;-65
2022/07/01 10:54:36;;;;;;;5.80;2.10;;;;;;;21.74;41.04;101400.63;5034342;28;20057;-67
2022/07/01 10:57:23;;;;;;;20.10;10.43;;;;;;;21.32;40.51;101399.00;5045657;28;20049;-64
2022/07/01 10:59:57;;;;;;;8.25;3.42;;;;;;;21.37;41.81;101405.13;5040280;28;20045;-64
2022/07/01 11:02:35;;;;;;;6.18;2.72;;;;;;;21.00;40.82;101406.72;5043927;28;20049;-66
2022/07/01 11:05:11;;;;;;;9.93;3.25;;;;;;;20.93;41.42;101400.94;5030244;28;20075;-64
2022/07/01 11:07:48;;;;;;;12.52;2.92;;;;;;;21.25;41.13;101402.47;5043202;28;20045;-64
2022/07/01 11:10:16;;;;;;;4.05;1.95;;;;;;;21.41;42.52;101405.19;5041466;28;20054;-65
2022/07/01 11:12:44;;;;;;;8.40;4.07;;;;;;;21.66;41.06;101404.47;5027479;28;20080;-67
2022/07/01 11:15:12;;;;;;;7.95;3.50;;;;;;;21.76;41.62;101401.06;5032383;28;20440;-65
2022/07/01 11:17:45;;;;;;;4.90;2.00;;;;;;;21.96;41.62;101404.66;5038735;28;20054;-64
2022/07/01 11:20:13;;;;;;;6.63;2.08;;;;;;;22.07;41.17;101394.44;5028841;28;20072;-64
2022/07/01 11:22:47;;;;;;;8.35;1.52;;;;;;;22.20;40.50;101395.88;5036509;28;20057;-65
2022/07/01 11:25:14;;;;;;;4.45;1.50;;;;;;;22.36;41.23;101390.94;5023640;28;20038;-64
2022/07/01 11:27:46;;;;;;;3.22;1.00;;;;;;;22.04;39.68;101395.19;5034082;28;20060;-65
2022/07/01 11:30:14;;;;;;;3.67;0.80;;;;;;;21.44;39.84;101391.25;5022507;28;20600;-64
2022/07/01 11:32:55;;;;;;;10.90;1.73;;;;;;;22.03;41.38;101388.78;5020274;28;20063;-65
2022/07/01 11:41:24;;;;;;;7.07;1.30;;;;;;;21.95;39.03;101398.25;5007951;28;20046;-64
2022/07/01 11:43:52;;;;;;;4.20;0.98;;;;;;;21.93;40.03;101403.41;5023600;28;20547;-64
2022/07/01 11:46:20;;;;;;;13.57;1.20;;;;;;;21.88;39.48;101402.94;5034386;28;20037;-65
2022/07/01 11:48:50;;;;;;;10.57;1.55;;;;;;;22.07;40.85;101406.47;5028179;28;20057;-64